Time;durP1;ratioP1;P1;durP2;ratioP2;P2;SDS_P1;SDS_P2;PMS_P1;PMS_P2;Temp;Humidity;BMP_temperature;BMP_pressure;BME280_temperature;BME280_humidity;BME280_pressure;Samples;Min_cycle;Max_cycle;Signal;HPM_P1;HPM_P2
2023/05/26 00:02:24;;;;;;;16.50;11.70;;;;;;;19.12;62.30;99380.69;4329527;33;33769;-93
2023/05/26 00:04:53;;;;;;;16.12;12.40;;;;;;;18.99;62.50;99373.94;4329999;33;34940;-90
2023/05/26 00:07:21;;;;;;;16.40;11.63;;;;;;;19.12;62.07;99375.41;4329860;33;33876;-92
2023/05/26 00:09:49;;;;;;;16.48;11.40;;;;;;;18.92;62.94;99376.66;4330399;33;33313;-92
2023/05/26 00:12:17;;;;;;;18.23;11.52;;;;;;;19.10;62.44;99382.47;4316576;33;34018;-91
2023/05/26 00:14:46;;;;;;;17.27;11.48;;;;;;;19.32;61.50;99377.66;4304559;33;33574;-92
2023/05/26 00:17:16;;;;;;;16.83;11.57;;;;;;;19.19;62.01;99382.31;4316821;33;33771;-92
2023/05/26 00:19:44;;;;;;;15.73;11.82;;;;;;;19.29;61.64;99381.25;4317000;33;33730;-93
2023/05/26 00:22:14;;;;;;;15.60;11.65;;;;;;;18.76;63.42;99383.09;4329227;33;33972;-92
2023/05/26 00:24:42;;;;;;;18.62;11.75;;;;;;;19.02;62.62;99384.37;4330345;33;33757;-92
2023/05/26 00:27:09;;;;;;;15.65;10.88;;;;;;;19.02;62.64;99382.63;4315699;33;34021;-89
2023/05/26 00:29:37;;;;;;;16.67;11.70;;;;;;;19.12;62.30;99383.31;4329324;33;34697;-92
2023/05/26 00:32:05;;;;;;;16.23;11.80;;;;;;;19.40;61.19;99376.66;4328636;33;33771;-91
2023/05/26 00:34:35;;;;;;;17.10;12.13;;;;;;;19.11;62.20;99373.69;4330273;33;34264;-91
2023/05/26 00:37:03;;;;;;;16.30;11.77;;;;;;;19.26;61.76;99378.66;4315701;33;34109;-90
2023/05/26 00:39:31;;;;;;;15.40;11.50;;;;;;;19.31;61.41;99374.19;4331997;33;34178;-91
2023/05/26 00:41:59;;;;;;;16.95;12.07;;;;;;;19.31;61.31;99376.81;4330823;33;34869;-92
2023/05/26 00:44:26;;;;;;;18.80;12.32;;;;;;;19.52;60.73;99374.66;4303240;33;34938;-89
2023/05/26 00:46:54;;;;;;;15.35;11.75;;;;;;;19.44;61.01;99370.41;4326206;33;34964;-91
2023/05/26 00:49:21;;;;;;;14.85;11.23;;;;;;;19.20;61.70;99373.50;4330418;33;33636;-92
2023/05/26 00:51:50;;;;;;;13.88;10.70;;;;;;;19.32;61.10;99373.31;4330696;33;33402;-93
2023/05/26 00:54:19;;;;;;;16.50;11.88;;;;;;;19.56;60.49;99376.34;4317199;33;35076;-90
2023/05/26 00:56:48;;;;;;;16.40;11.30;;;;;;;19.53;60.68;99366.72;4318006;33;35008;-92
2023/05/26 00:59:15;;;;;;;13.62;10.32;;;;;;;19.68;60.29;99370.84;4331541;33;33748;-90
2023/05/26 01:01:43;;;;;;;15.05;10.90;;;;;;;19.64;60.38;99366.56;4331397;33;33644;-92
2023/05/26 01:04:12;;;;;;;13.82;10.88;;;;;;;19.69;60.26;99360.28;4330706;33;33942;-89
2023/05/26 01:06:41;;;;;;;13.80;10.57;;;;;;;19.85;59.75;99359.94;4331284;33;35127;-91
2023/05/26 01:09:08;;;;;;;16.10;10.32;;;;;;;19.99;59.28;99363.16;4318879;33;33276;-91
2023/05/26 01:11:42;;;;;;;18.20;10.98;;;;;;;19.96;59.38;99365.84;4315059;33;33884;-91
2023/05/26 01:14:31;;;;;;;16.75;11.68;;;;;;;19.99;59.20;99359.66;4312144;33;33991;-91
2023/05/26 01:17:12;;;;;;;20.17;11.02;;;;;;;19.85;59.50;99362.56;4331445;33;34810;-91
2023/05/26 01:19:58;;;;;;;14.18;9.90;;;;;;;19.91;59.22;99359.81;4318335;33;33748;-92
2023/05/26 01:22:41;;;;;;;15.98;9.98;;;;;;;20.08;58.71;99362.97;4331114;33;35159;-90
2023/05/26 01:25:44;;;;;;;14.52;11.05;;;;;;;20.02;58.63;99365.72;4330875;33;33774;-91
2023/05/26 01:28:26;;;;;;;12.85;9.82;;;;;;;20.02;58.79;99363.09;4329773;33;34176;-92
2023/05/26 01:30:53;;;;;;;13.50;11.02;;;;;;;20.00;58.81;99366.63;4317215;33;33557;-91
2023/05/26 01:33:21;;;;;;;15.70;10.57;;;;;;;19.88;59.25;99363.38;4306013;33;34455;-91
2023/05/26 01:35:49;;;;;;;15.18;10.32;;;;;;;19.74;59.35;99360.22;4330897;33;34971;-92
2023/05/26 01:38:16;;;;;;;13.62;11.12;;;;;;;19.79;59.45;99354.84;4317471;33;34239;-91
2023/05/26 01:40:53;;;;;;;16.58;11.95;;;;;;;19.40;60.43;99355.59;4316127;33;33783;-91
2023/05/26 01:43:31;;;;;;;15.65;11.48;;;;;;;19.26;60.85;99357.62;4318225;33;34885;-91
2023/05/26 01:46:20;;;;;;;16.37;11.60;;;;;;;19.39;60.30;99351.22;4314955;33;34071;-92
2023/05/26 01:48:48;;;;;;;17.65;13.45;;;;;;;19.49;59.96;99354.53;4326191;33;33717;-91
2023/05/26 01:51:17;;;;;;;17.00;12.32;;;;;;;19.36;60.51;99343.44;4316861;33;33489;-90
2023/05/26 01:53:48;;;;;;;16.77;11.90;;;;;;;19.38;60.65;99346.88;4317911;33;33696;-92
2023/05/26 01:56:17;;;;;;;17.90;13.30;;;;;;;19.31;60.63;99345.25;4317110;33;34169;-92
2023/05/26 01:58:46;;;;;;;15.70;12.35;;;;;;;19.06;61.58;99346.66;4314693;33;34946;-91
2023/05/26 02:01:13;;;;;;;17.45;12.65;;;;;;;19.04;61.41;99346.66;4316676;33;33726;-91
2023/05/26 02:03:41;;;;;;;14.98;10.90;;;;;;;19.24;60.96;99354.16;4330471;33;34468;-91
2023/05/26 02:06:09;;;;;;;14.05;10.90;;;;;;;19.39;60.59;99356.47;4331323;33;34182;-91
2023/05/26 02:08:37;;;;;;;13.07;10.43;;;;;;;19.52;59.93;99358.88;4330638;33;34051;-91
2023/05/26 02:11:05;;;;;;;15.85;10.52;;;;;;;19.51;59.94;99352.78;4329490;33;33535;-91
2023/05/26 02:13:33;;;;;;;17.02;12.23;;;;;;;19.61;59.36;99350.78;4331069;33;33607;-91
2023/05/26 02:16:00;;;;;;;15.95;11.77;;;;;;;19.66;59.14;99341.06;4330647;33;33796;-90
2023/05/26 02:18:28;;;;;;;14.63;10.63;;;;;;;19.40;59.95;99350.34;4315911;33;34172;-88
2023/05/26 02:20:55;;;;;;;15.70;11.52;;;;;;;19.47;59.78;99355.47;4330122;33;33830;-91
2023/05/26 02:23:23;;;;;;;17.85;11.75;;;;;;;19.38;59.99;99349.50;4330299;33;33339;-90
2023/05/26 02:25:51;;;;;;;14.82;10.75;;;;;;;19.18;60.67;99346.41;4331167;33;34125;-91
2023/05/26 02:28:19;;;;;;;14.40;11.55;;;;;;;19.27;60.20;99348.84;4329203;33;33875;-91
2023/05/26 02:30:46;;;;;;;15.70;11.05;;;;;;;19.27;59.88;99348.84;4330173;33;33415;-91
2023/05/26 02:33:14;;;;;;;14.77;10.60;;;;;;;19.15;60.37;99349.94;4317734;33;34693;-92
2023/05/26 02:35:42;;;;;;;15.63;11.70;;;;;;;19.14;60.48;99345.59;4317784;33;34188;-91
2023/05/26 02:38:10;;;;;;;15.00;11.05;;;;;;;19.02;60.85;99345.84;4317559;33;33995;-90
2023/05/26 02:40:37;;;;;;;13.62;11.52;;;;;;;18.97;60.98;99352.91;4330578;33;33736;-87
2023/05/26 02:43:05;;;;;;;15.57;11.20;;;;;;;19.17;60.40;99344.69;4331068;33;33977;-91
2023/05/26 02:45:32;;;;;;;14.63;12.10;;;;;;;18.88;61.14;99348.72;4317432;33;34549;-90
2023/05/26 02:48:00;;;;;;;18.17;11.63;;;;;;;18.79;61.60;99348.00;4330863;33;34278;-90
2023/05/26 02:50:28;;;;;;;16.23;11.63;;;;;;;18.98;61.00;99348.53;4305451;33;32988;-91
2023/05/26 02:52:55;;;;;;;16.98;11.82;;;;;;;18.89;61.34;99347.81;4330794;33;34089;-92
2023/05/26 02:55:24;;;;;;;19.90;11.80;;;;;;;18.61;62.21;99351.78;4317497;33;34058;-92
2023/05/26 02:57:52;;;;;;;21.87;12.93;;;;;;;18.87;61.67;99349.62;4304412;33;32799;-91
2023/05/26 03:00:19;;;;;;;16.50;12.37;;;;;;;18.57;62.83;99350.12;4314817;33;34708;-91
2023/05/26 03:02:47;;;;;;;18.42;13.60;;;;;;;18.73;62.38;99356.84;4330334;33;34143;-91
2023/05/26 03:05:15;;;;;;;21.05;14.75;;;;;;;18.52;63.29;99357.19;4305102;33;32798;-91
2023/05/26 03:07:42;;;;;;;21.90;16.25;;;;;;;18.11;64.54;99363.97;4316356;33;34858;-92
2023/05/26 03:10:10;;;;;;;20.35;14.57;;;;;;;18.25;64.37;99369.84;4330951;33;33586;-92
2023/05/26 03:12:38;;;;;;;24.80;16.92;;;;;;;18.12;64.55;99366.56;4330268;33;33351;-91
2023/05/26 03:15:06;;;;;;;21.77;16.23;;;;;;;18.17;64.42;99366.47;4315790;33;33710;-91
2023/05/26 03:17:34;;;;;;;23.52;16.17;;;;;;;17.81;65.65;99368.75;4316113;33;34193;-90
2023/05/26 03:20:02;;;;;;;21.73;16.70;;;;;;;17.75;66.13;99371.44;4303998;33;32649;-91
2023/05/26 03:22:29;;;;;;;23.25;17.23;;;;;;;17.61;66.99;99363.69;4330148;33;33853;-91
2023/05/26 03:25:16;;;;;;;21.00;15.60;;;;;;;17.69;66.52;99374.09;4329489;33;33851;-91
2023/05/26 03:27:46;;;;;;;22.30;17.15;;;;;;;17.77;66.19;99372.28;4293017;33;33678;-91
2023/05/26 03:30:13;;;;;;;26.45;17.12;;;;;;;17.80;66.33;99371.38;4304374;33;33116;-91
2023/05/26 03:32:41;;;;;;;20.40;15.63;;;;;;;18.18;64.81;99374.34;4316497;33;33825;-91
2023/05/26 03:35:09;;;;;;;23.48;16.02;;;;;;;18.42;64.04;99375.72;4330093;33;34261;-90
2023/05/26 03:37:37;;;;;;;24.45;17.40;;;;;;;18.35;64.13;99370.59;4330106;33;33936;-91
2023/05/26 03:40:06;;;;;;;23.87;17.35;;;;;;;18.29;64.37;99374.16;4330850;33;34477;-91
2023/05/26 03:42:34;;;;;;;23.87;16.77;;;;;;;18.04;65.26;99380.69;4330847;33;33873;-92
2023/05/26 03:45:02;;;;;;;23.60;17.25;;;;;;;18.20;65.02;99384.81;4305482;33;34209;-93
2023/05/26 03:47:31;;;;;;;25.25;17.80;;;;;;;17.60;66.79;99382.09;4317132;33;34077;-90
2023/05/26 03:49:59;;;;;;;23.33;17.05;;;;;;;17.45;67.33;99378.75;4317445;33;32994;-92
2023/05/26 03:52:28;;;;;;;27.25;17.98;;;;;;;17.71;66.61;99369.72;4317317;33;34540;-91
2023/05/26 03:54:56;;;;;;;23.52;17.87;;;;;;;17.95;65.83;99385.13;4329913;33;34140;-91
2023/05/26 03:57:23;;;;;;;22.08;16.80;;;;;;;17.81;66.28;99384.47;4330697;33;34366;-90
2023/05/26 03:59:51;;;;;;;23.27;16.60;;;;;;;18.44;64.26;99380.94;4330603;33;34291;-91
2023/05/26 04:02:19;;;;;;;23.95;17.62;;;;;;;18.45;64.18;99380.94;4330112;33;33944;-92
2023/05/26 04:04:47;;;;;;;24.42;17.02;;;;;;;18.88;62.54;99382.00;4329954;33;34021;-90
2023/05/26 04:07:15;;;;;;;22.13;16.62;;;;;;;19.06;61.94;99386.06;4311658;33;34027;-92
2023/05/26 04:09:42;;;;;;;24.52;16.87;;;;;;;18.91;62.55;99388.06;4322831;33;33457;-91
2023/05/26 04:12:10;;;;;;;25.02;17.67;;;;;;;19.07;61.88;99385.16;4329771;33;33497;-88
2023/05/26 04:14:38;;;;;;;23.95;17.00;;;;;;;19.00;62.11;99381.78;4316205;33;33925;-90
2023/05/26 04:17:05;;;;;;;23.50;16.65;;;;;;;19.53;60.66;99382.50;4315957;33;34856;-93
2023/05/26 04:19:33;;;;;;;25.37;18.25;;;;;;;19.56;60.19;99385.09;4316565;33;33402;-92
2023/05/26 04:22:00;;;;;;;22.65;16.35;;;;;;;19.87;59.23;99390.59;4316259;33;34207;-93
2023/05/26 04:24:29;;;;;;;21.75;16.45;;;;;;;20.06;59.04;99391.06;4316704;33;34328;-91
2023/05/26 04:26:57;;;;;;;24.00;16.65;;;;;;;20.26;58.11;99392.38;4330316;33;35094;-92
2023/05/26 04:29:26;;;;;;;17.62;13.40;;;;;;;20.17;58.06;99396.09;4327522;33;34716;-91
2023/05/26 04:31:55;;;;;;;22.67;15.68;;;;;;;20.70;56.88;99396.63;4334355;33;34795;-92
2023/05/26 04:34:26;;;;;;;19.27;14.68;;;;;;;20.95;55.95;99390.72;4329998;33;34156;-89
2023/05/26 04:36:54;;;;;;;20.08;14.65;;;;;;;21.46;54.94;99390.28;4328189;33;34286;-92
2023/05/26 04:39:22;;;;;;;19.87;14.13;;;;;;;21.08;55.61;99389.50;4327755;33;34573;-89
2023/05/26 04:41:50;;;;;;;22.55;15.48;;;;;;;21.71;54.56;99388.66;4329130;33;34043;-90
2023/05/26 04:44:18;;;;;;;21.73;14.77;;;;;;;20.59;56.79;99388.97;4322013;33;33587;-89
2023/05/26 04:46:46;;;;;;;21.73;15.35;;;;;;;21.38;55.15;99386.06;4317446;33;34927;-87
2023/05/26 04:49:16;;;;;;;23.05;15.30;;;;;;;21.50;54.47;99386.63;4329628;33;34563;-89
2023/05/26 04:51:43;;;;;;;20.73;14.45;;;;;;;21.67;53.95;99387.03;4328966;33;34092;-89
2023/05/26 04:54:11;;;;;;;23.23;14.90;;;;;;;21.71;53.78;99382.53;4328739;33;33809;-90
2023/05/26 04:56:40;;;;;;;20.15;14.35;;;;;;;21.38;54.14;99391.34;4328950;33;34105;-89
2023/05/26 04:59:07;;;;;;;21.73;14.87;;;;;;;21.51;53.72;99385.72;4329266;33;34569;-90
2023/05/26 05:01:35;;;;;;;22.05;15.38;;;;;;;21.73;53.95;99389.47;4323034;33;33977;-88
2023/05/26 05:04:07;;;;;;;19.75;14.68;;;;;;;21.30;53.99;99387.16;4324297;33;33741;-90
2023/05/26 05:06:35;;;;;;;21.35;15.00;;;;;;;21.65;53.16;99396.75;4329841;33;34525;-89
2023/05/26 05:09:03;;;;;;;20.65;14.63;;;;;;;21.51;54.41;99396.28;4329464;33;33757;-89
2023/05/26 05:11:31;;;;;;;21.90;15.40;;;;;;;21.62;54.34;99399.47;4329194;33;33968;-90
2023/05/26 05:13:59;;;;;;;19.77;14.32;;;;;;;20.96;55.71;99393.34;4329255;33;33788;-91
2023/05/26 05:16:26;;;;;;;23.12;16.40;;;;;;;21.73;53.59;99400.03;4316344;33;35123;-90
2023/05/26 05:18:54;;;;;;;20.73;15.48;;;;;;;21.20;54.79;99399.72;4330969;33;33540;-89
2023/05/26 05:21:22;;;;;;;26.10;16.98;;;;;;;21.53;54.07;99405.87;4317423;33;33738;-89
2023/05/26 05:23:50;;;;;;;23.05;15.80;;;;;;;21.20;54.93;99402.34;4331649;33;34185;-89
2023/05/26 05:26:18;;;;;;;21.65;15.65;;;;;;;21.77;53.65;99401.66;4330905;33;34061;-89
2023/05/26 05:28:46;;;;;;;21.65;15.10;;;;;;;21.92;53.84;99399.50;4331337;33;33771;-88
2023/05/26 05:31:14;;;;;;;23.75;16.27;;;;;;;21.54;54.84;99399.69;4331483;33;33475;-91
2023/05/26 05:33:43;;;;;;;22.92;15.15;;;;;;;21.50;54.67;99399.81;4330285;33;34108;-87
2023/05/26 05:36:11;;;;;;;22.20;15.43;;;;;;;21.56;54.26;99399.66;4329666;33;33387;-92
2023/05/26 05:38:39;;;;;;;23.92;15.90;;;;;;;21.71;54.41;99399.22;4331650;33;33508;-91
2023/05/26 05:41:06;;;;;;;24.92;16.20;;;;;;;21.33;55.20;99398.53;4309708;33;33517;-87
2023/05/26 05:43:34;;;;;;;22.80;15.93;;;;;;;21.45;54.71;99396.47;4327915;33;34818;-87
2023/05/26 05:46:02;;;;;;;24.50;16.37;;;;;;;21.24;56.23;99404.00;4331602;33;34998;-91
2023/05/26 05:48:30;;;;;;;26.37;16.92;;;;;;;21.92;53.52;99402.12;4331513;33;33889;-88
2023/05/26 05:50:59;;;;;;;22.02;16.10;;;;;;;21.73;54.44;99401.81;4330574;33;33666;-89
2023/05/26 05:53:27;;;;;;;23.23;16.75;;;;;;;21.60;54.35;99407.44;4330775;33;35010;-89
2023/05/26 05:55:55;;;;;;;22.83;16.12;;;;;;;22.23;52.45;99413.53;4331046;33;34219;-92
2023/05/26 05:58:22;;;;;;;24.77;15.02;;;;;;;22.32;53.71;99412.38;4328495;33;33397;-91
2023/05/26 06:00:50;;;;;;;21.40;14.70;;;;;;;22.33;53.10;99414.13;4330422;33;34663;-86
2023/05/26 06:03:18;;;;;;;21.37;15.60;;;;;;;22.89;52.55;99419.34;4327924;33;32482;-89
2023/05/26 06:05:46;;;;;;;22.27;14.57;;;;;;;21.93;53.39;99419.69;4331240;33;34892;-89
2023/05/26 06:08:13;;;;;;;26.33;14.95;;;;;;;21.87;53.61;99423.41;4330196;33;33553;-91
2023/05/26 06:10:41;;;;;;;19.60;14.27;;;;;;;22.09;52.90;99423.63;4304401;33;34513;-92
2023/05/26 06:13:08;;;;;;;20.90;14.77;;;;;;;21.34;54.96;99431.91;4328160;33;33974;-90
2023/05/26 06:15:36;;;;;;;19.48;13.98;;;;;;;21.83;53.70;99435.81;4331254;33;34752;-91
2023/05/26 06:18:04;;;;;;;23.17;14.07;;;;;;;22.38;52.18;99428.03;4306128;33;33882;-94
2023/05/26 06:20:32;;;;;;;18.67;14.00;;;;;;;22.72;52.10;99442.81;4331528;33;33757;-93
2023/05/26 06:22:59;;;;;;;18.65;13.15;;;;;;;22.90;50.47;99436.06;4331281;33;34779;-92
2023/05/26 06:25:27;;;;;;;18.45;11.95;;;;;;;23.15;50.04;99434.38;4317998;33;33818;-92
2023/05/26 06:27:55;;;;;;;18.55;11.95;;;;;;;23.21;50.12;99439.44;4331065;33;34133;-92
2023/05/26 06:30:23;;;;;;;19.00;12.23;;;;;;;23.15;49.76;99437.00;4305121;33;32222;-92
2023/05/26 06:32:52;;;;;;;21.58;12.50;;;;;;;23.18;49.94;99436.03;4331089;33;33764;-90
2023/05/26 06:35:20;;;;;;;20.45;11.95;;;;;;;23.16;49.28;99436.09;4330893;33;34945;-92
2023/05/26 06:37:47;;;;;;;18.60;11.50;;;;;;;23.41;49.20;99436.09;4331210;33;34891;-93
2023/05/26 06:40:16;;;;;;;19.60;10.93;;;;;;;23.62;49.27;99431.81;4331591;33;33874;-92
2023/05/26 06:42:44;;;;;;;20.30;11.23;;;;;;;23.84;49.03;99431.06;4331415;33;34978;-90
2023/05/26 06:45:11;;;;;;;15.43;11.05;;;;;;;24.34;47.95;99436.22;4318033;33;34107;-91
2023/05/26 06:47:40;;;;;;;14.23;10.82;;;;;;;24.49;46.97;99435.63;4317944;33;33586;-92
2023/05/26 06:50:08;;;;;;;18.48;10.95;;;;;;;24.32;47.65;99430.97;4318017;33;33670;-92
2023/05/26 06:52:36;;;;;;;17.98;10.57;;;;;;;25.08;46.80;99429.69;4330873;33;34894;-92
2023/05/26 06:55:05;;;;;;;16.12;9.05;;;;;;;24.68;45.70;99441.91;4330916;33;33838;-92
2023/05/26 06:57:32;;;;;;;14.63;9.85;;;;;;;24.38;44.79;99446.63;4317991;33;35044;-93
2023/05/26 06:59:59;;;;;;;16.55;10.50;;;;;;;24.90;45.43;99444.56;4317660;33;33391;-92
2023/05/26 07:02:28;;;;;;;13.45;9.27;;;;;;;25.22;45.58;99442.38;4317710;33;34578;-92
2023/05/26 07:04:57;;;;;;;16.00;11.00;;;;;;;25.16;45.97;99438.19;4330737;33;34005;-92
2023/05/26 07:07:24;;;;;;;15.52;9.43;;;;;;;25.37;45.22;99440.84;4330973;33;32929;-92
2023/05/26 07:09:55;;;;;;;19.52;9.55;;;;;;;25.58;45.00;99437.25;4331147;33;33695;-91
2023/05/26 07:12:23;;;;;;;16.77;10.88;;;;;;;25.69;44.40;99442.94;4333306;33;34888;-92
2023/05/26 07:14:50;;;;;;;16.95;9.88;;;;;;;25.75;42.44;99441.81;4330370;33;34021;-93
2023/05/26 07:17:19;;;;;;;14.52;8.63;;;;;;;25.32;41.86;99448.16;4317390;33;33341;-92
2023/05/26 07:19:47;;;;;;;13.07;9.10;;;;;;;25.44;42.22;99447.63;4331127;33;33717;-92
2023/05/26 07:22:14;;;;;;;15.38;9.73;;;;;;;25.37;43.32;99448.81;4317064;33;33026;-93
2023/05/26 07:24:43;;;;;;;15.07;9.07;;;;;;;25.04;43.82;99449.31;4317777;33;34038;-92
2023/05/26 07:27:11;;;;;;;13.52;8.75;;;;;;;25.26;42.46;99445.75;4330641;33;34602;-94
2023/05/26 07:29:39;;;;;;;15.77;9.55;;;;;;;24.85;42.53;99450.97;4330791;33;33701;-92
2023/05/26 07:32:07;;;;;;;13.95;8.82;;;;;;;25.73;41.64;99443.69;4330729;33;34947;-92
2023/05/26 07:34:35;;;;;;;15.07;8.57;;;;;;;25.35;42.68;99450.69;4330805;33;34648;-92
2023/05/26 07:37:02;;;;;;;12.23;8.30;;;;;;;24.51;42.68;99455.88;4317184;33;34443;-92
2023/05/26 07:39:30;;;;;;;12.45;7.82;;;;;;;24.23;42.95;99453.38;4317656;33;33698;-91
2023/05/26 07:41:58;;;;;;;17.40;8.88;;;;;;;24.54;41.55;99449.56;4330639;33;34055;-91
2023/05/26 07:44:26;;;;;;;14.18;8.48;;;;;;;24.61;42.59;99458.13;4317345;33;33911;-91
2023/05/26 07:46:53;;;;;;;15.57;8.13;;;;;;;25.50;41.54;99447.34;4293411;33;33954;-91
2023/05/26 07:49:21;;;;;;;14.18;8.20;;;;;;;25.72;40.91;99449.91;4317456;33;33527;-91
2023/05/26 07:51:48;;;;;;;12.52;8.07;;;;;;;26.28;38.68;99443.81;4330491;33;33932;-91
2023/05/26 07:54:16;;;;;;;13.50;9.20;;;;;;;26.50;38.86;99446.34;4330408;33;34126;-91
2023/05/26 07:56:43;;;;;;;13.18;8.27;;;;;;;26.19;38.36;99447.78;4330331;33;33405;-91
2023/05/26 07:59:13;;;;;;;17.50;7.25;;;;;;;25.99;38.05;99438.97;4330444;33;33788;-92
2023/05/26 08:01:40;;;;;;;13.45;7.90;;;;;;;26.26;38.55;99443.03;4317199;33;34223;-92
2023/05/26 08:04:08;;;;;;;10.32;7.43;;;;;;;26.56;38.74;99440.75;4304562;33;33303;-91
2023/05/26 08:06:36;;;;;;;12.68;7.93;;;;;;;25.78;37.44;99446.13;4317018;33;34172;-90
2023/05/26 08:09:03;;;;;;;14.40;7.68;;;;;;;25.31;39.12;99446.44;4330572;33;33681;-91
2023/05/26 08:11:31;;;;;;;16.62;7.75;;;;;;;24.96;38.32;99441.66;4316944;33;34025;-90
2023/05/26 08:13:59;;;;;;;14.55;8.00;;;;;;;25.19;38.41;99448.69;4317051;33;34003;-91
2023/05/26 08:16:26;;;;;;;12.52;7.87;;;;;;;25.82;38.16;99448.59;4330454;33;33565;-91
2023/05/26 08:18:54;;;;;;;13.80;7.28;;;;;;;25.99;38.29;99446.94;4330088;33;34046;-91
2023/05/26 08:21:21;;;;;;;12.63;7.68;;;;;;;25.87;38.16;99451.91;4330143;33;34241;-90
2023/05/26 08:23:49;;;;;;;13.32;7.43;;;;;;;25.65;37.50;99451.13;4330123;33;34108;-89
2023/05/26 08:26:17;;;;;;;13.77;7.87;;;;;;;25.98;38.05;99453.22;4316938;33;33103;-91
2023/05/26 08:28:44;;;;;;;12.00;7.18;;;;;;;26.24;38.35;99454.66;4316850;33;32186;-94
2023/05/26 08:31:14;;;;;;;13.20;7.57;;;;;;;25.79;36.99;99447.88;4329857;33;34802;-90
2023/05/26 08:33:41;;;;;;;10.73;7.22;;;;;;;25.76;36.68;99440.88;4329463;33;34944;-91
2023/05/26 08:36:09;;;;;;;13.40;7.50;;;;;;;26.19;39.41;99449.56;4316618;33;32510;-91
2023/05/26 08:38:36;;;;;;;11.57;8.02;;;;;;;26.10;37.74;99447.31;4316719;33;33210;-92
2023/05/26 08:41:05;;;;;;;14.38;7.50;;;;;;;26.48;36.57;99447.34;4316218;33;34045;-90
2023/05/26 08:43:42;;;;;;;14.52;6.80;;;;;;;26.66;36.44;99442.00;4316310;33;33773;-91
2023/05/26 08:46:16;;;;;;;10.98;7.07;;;;;;;26.41;36.49;99444.97;4317246;33;35435;-91
2023/05/26 08:48:44;;;;;;;12.05;7.72;;;;;;;26.76;37.26;99444.22;4316332;33;33777;-90
2023/05/26 08:51:12;;;;;;;12.82;7.60;;;;;;;26.38;36.82;99453.09;4316535;33;34125;-91
2023/05/26 08:53:40;;;;;;;10.73;7.05;;;;;;;26.53;36.61;99451.53;4331068;33;34586;-91
2023/05/26 08:56:09;;;;;;;15.27;8.82;;;;;;;26.68;35.32;99450.78;4331783;33;33552;-90
2023/05/26 08:58:37;;;;;;;11.63;7.55;;;;;;;26.30;36.29;99443.75;4318574;33;33757;-91
2023/05/26 09:01:05;;;;;;;14.00;8.60;;;;;;;27.16;37.01;99446.66;4318071;33;33720;-91
2023/05/26 09:03:33;;;;;;;13.88;7.82;;;;;;;27.57;36.48;99434.78;4318229;33;34202;-91
2023/05/26 09:06:01;;;;;;;13.80;8.00;;;;;;;27.29;34.74;99440.69;4332036;33;33965;-91
2023/05/26 09:08:29;;;;;;;13.30;8.35;;;;;;;27.17;36.59;99439.53;4306522;33;34856;-91
2023/05/26 09:10:56;;;;;;;18.10;8.95;;;;;;;27.50;35.89;99441.38;4306228;33;33823;-91
2023/05/26 09:13:24;;;;;;;15.85;8.73;;;;;;;27.67;36.54;99438.69;4331636;33;34111;-90
2023/05/26 09:15:54;;;;;;;13.20;8.57;;;;;;;26.66;37.14;99439.34;4331440;33;35023;-90
2023/05/26 09:18:41;;;;;;;13.07;9.10;;;;;;;27.23;37.32;99433.88;4331491;33;33953;-92
2023/05/26 09:21:09;;;;;;;13.02;8.82;;;;;;;27.55;35.82;99432.22;4331197;33;34315;-91
2023/05/26 09:23:37;;;;;;;12.65;8.23;;;;;;;28.05;35.34;99436.66;4317953;33;33706;-90
2023/05/26 09:26:06;;;;;;;16.17;10.15;;;;;;;27.56;34.89;99439.25;4331620;33;33474;-91
2023/05/26 09:28:33;;;;;;;16.58;9.40;;;;;;;27.07;37.31;99441.75;4318011;33;34860;-91
2023/05/26 09:31:07;;;;;;;14.32;9.00;;;;;;;25.84;39.15;99435.25;4331535;33;33935;-91
2023/05/26 09:33:44;;;;;;;13.75;9.50;;;;;;;26.38;40.33;99438.94;4318164;33;34006;-91
2023/05/26 09:36:13;;;;;;;13.70;9.30;;;;;;;26.84;40.72;99437.56;4318385;33;34405;-92
2023/05/26 09:38:44;;;;;;;15.40;8.82;;;;;;;27.29;39.93;99435.38;4306265;33;34666;-90
2023/05/26 09:41:13;;;;;;;17.95;10.00;;;;;;;27.47;38.93;99434.41;4318253;33;33996;-92
2023/05/26 09:43:41;;;;;;;16.37;9.70;;;;;;;27.13;39.37;99430.84;4318203;33;34800;-91
2023/05/26 09:46:20;;;;;;;14.85;9.95;;;;;;;27.06;39.92;99433.84;4331630;33;33927;-91
2023/05/26 09:48:51;;;;;;;18.37;9.45;;;;;;;27.65;38.64;99433.44;4318263;33;33787;-91
2023/05/26 09:51:20;;;;;;;16.90;9.05;;;;;;;27.87;37.58;99429.66;4305775;33;33934;-93
2023/05/26 09:53:57;;;;;;;16.00;10.02;;;;;;;27.70;37.97;99424.34;4319068;33;34375;-91
2023/05/26 09:56:26;;;;;;;16.42;11.43;;;;;;;26.93;38.67;99428.25;4331156;33;33807;-92
2023/05/26 09:58:57;;;;;;;17.10;10.20;;;;;;;27.02;39.93;99422.50;4318469;33;33931;-92
2023/05/26 10:01:26;;;;;;;15.10;9.35;;;;;;;27.34;39.45;99420.00;4331196;33;34990;-93
2023/05/26 10:03:54;;;;;;;14.05;9.30;;;;;;;27.24;40.31;99421.41;4330468;33;34122;-91
2023/05/26 10:06:21;;;;;;;15.98;8.63;;;;;;;27.36;38.10;99426.97;4317835;33;33370;-91
2023/05/26 10:08:50;;;;;;;14.50;9.48;;;;;;;27.73;40.20;99424.16;4331249;33;33847;-91
2023/05/26 10:11:20;;;;;;;18.60;10.40;;;;;;;27.89;37.63;99425.09;4331051;33;33947;-91
2023/05/26 10:13:47;;;;;;;14.60;9.23;;;;;;;27.98;37.77;99418.41;4317558;33;34251;-91
2023/05/26 10:16:15;;;;;;;16.17;9.70;;;;;;;27.88;38.05;99423.38;4331034;33;33761;-92
2023/05/26 10:18:42;;;;;;;14.15;10.20;;;;;;;27.67;39.55;99416.50;4331344;33;33567;-92
2023/05/26 10:21:11;;;;;;;12.45;9.30;;;;;;;27.36;39.66;99426.12;4303078;33;34888;-91
2023/05/26 10:23:46;;;;;;;17.37;9.55;;;;;;;28.01;39.90;99423.56;4303268;33;35030;-92
2023/05/26 10:26:33;;;;;;;14.13;9.85;;;;;;;28.36;39.25;99424.28;4315177;33;33733;-91
2023/05/26 10:29:04;;;;;;;18.05;9.68;;;;;;;27.75;37.43;99422.31;4303356;33;33731;-91
2023/05/26 10:31:34;;;;;;;15.85;8.45;;;;;;;27.94;36.90;99428.38;4311712;33;34193;-92
2023/05/26 10:34:34;;;;;;;15.40;10.30;;;;;;;28.05;37.58;99425.12;4305417;33;34598;-92
2023/05/26 10:37:03;;;;;;;14.13;9.48;;;;;;;28.17;39.70;99418.25;4328073;33;33411;-92
2023/05/26 10:39:30;;;;;;;15.93;10.20;;;;;;;28.30;40.05;99424.63;4317830;33;34868;-91
2023/05/26 10:41:57;;;;;;;12.73;9.75;;;;;;;27.76;37.82;99416.91;4330788;33;34436;-91
2023/05/26 10:44:39;;;;;;;15.02;9.70;;;;;;;27.50;38.65;99415.59;4317119;33;33770;-92
2023/05/26 10:47:06;;;;;;;15.48;10.07;;;;;;;28.09;39.75;99419.53;4331404;33;33733;-93
2023/05/26 10:49:35;;;;;;;12.88;9.40;;;;;;;27.51;41.76;99412.00;4317595;33;34607;-92
2023/05/26 10:52:14;;;;;;;13.98;9.35;;;;;;;27.77;39.71;99410.66;4305735;33;33778;-92
2023/05/26 10:54:47;;;;;;;14.95;9.50;;;;;;;28.31;40.31;99407.69;4330941;33;35339;-91
2023/05/26 10:57:31;;;;;;;13.27;8.43;;;;;;;28.60;38.84;99406.94;4318384;33;33518;-93
2023/05/26 11:00:18;;;;;;;17.70;10.10;;;;;;;28.73;38.42;99411.53;4329507;33;32841;-92
2023/05/26 11:02:46;;;;;;;12.88;9.38;;;;;;;28.24;39.52;99398.31;4331252;33;35053;-92
2023/05/26 11:05:32;;;;;;;14.32;8.93;;;;;;;28.10;40.58;99413.25;4317217;33;33155;-91
2023/05/26 11:08:00;;;;;;;15.43;10.27;;;;;;;28.10;39.93;99401.72;4317848;33;33650;-91
2023/05/26 11:10:58;;;;;;;13.55;8.93;;;;;;;27.49;41.59;99400.56;4330887;33;34407;-88
2023/05/26 11:13:43;;;;;;;14.43;8.85;;;;;;;27.67;41.58;99395.22;4317279;33;33667;-90
2023/05/26 11:16:18;;;;;;;14.82;9.27;;;;;;;27.48;40.99;99398.84;4317335;33;33940;-90
2023/05/26 11:18:48;;;;;;;12.13;9.20;;;;;;;27.19;42.28;99404.84;4330784;33;33834;-91
2023/05/26 11:21:17;;;;;;;12.73;9.25;;;;;;;27.35;41.18;99398.66;4317766;33;34910;-90
2023/05/26 11:23:46;;;;;;;12.90;8.95;;;;;;;27.56;41.24;99398.44;4317804;33;33751;-91
2023/05/26 11:26:14;;;;;;;11.82;8.60;;;;;;;27.58;39.35;99383.25;4330977;33;34246;-91
2023/05/26 11:28:46;;;;;;;12.27;8.38;;;;;;;28.29;39.23;99386.41;4305259;33;33638;-91
2023/05/26 11:31:15;;;;;;;19.27;8.93;;;;;;;28.16;38.02;99384.56;4330621;33;34045;-90